sensor_id;sensor_type;location;lat;lon;timestamp;P1;durP1;ratioP1;P2;durP2;ratioP2
9559;SDS011;4818;50.860;4.648;2023-12-20T00:00:16;11.23;;;0.82;;
9559;SDS011;4818;50.860;4.648;2023-12-20T00:02:43;19.35;;;1.15;;
9559;SDS011;4818;50.860;4.648;2023-12-20T00:05:12;10.77;;;0.80;;
9559;SDS011;4818;50.860;4.648;2023-12-20T00:07:39;14.13;;;1.25;;
9559;SDS011;4818;50.860;4.648;2023-12-20T00:10:05;15.18;;;1.55;;
9559;SDS011;4818;50.860;4.648;2023-12-20T00:12:32;9.57;;;1.17;;
9559;SDS011;4818;50.860;4.648;2023-12-20T00:14:58;11.02;;;1.17;;
9559;SDS011;4818;50.860;4.648;2023-12-20T00:17:24;8.70;;;1.83;;
9559;SDS011;4818;50.860;4.648;2023-12-20T00:19:50;8.52;;;1.08;;
9559;SDS011;4818;50.860;4.648;2023-12-20T00:22:17;15.82;;;1.60;;
9559;SDS011;4818;50.860;4.648;2023-12-20T00:24:43;13.90;;;1.90;;
9559;SDS011;4818;50.860;4.648;2023-12-20T00:27:09;15.60;;;1.05;;
9559;SDS011;4818;50.860;4.648;2023-12-20T00:29:35;9.70;;;1.02;;
9559;SDS011;4818;50.860;4.648;2023-12-20T00:32:01;12.05;;;1.42;;
9559;SDS011;4818;50.860;4.648;2023-12-20T00:34:28;6.30;;;1.05;;
9559;SDS011;4818;50.860;4.648;2023-12-20T00:36:54;6.78;;;0.82;;
9559;SDS011;4818;50.860;4.648;2023-12-20T00:39:20;15.68;;;0.90;;
9559;SDS011;4818;50.860;4.648;2023-12-20T00:41:46;7.40;;;0.60;;
9559;SDS011;4818;50.860;4.648;2023-12-20T00:44:13;7.75;;;0.73;;
9559;SDS011;4818;50.860;4.648;2023-12-20T00:46:39;9.88;;;0.98;;
9559;SDS011;4818;50.860;4.648;2023-12-20T00:49:05;8.50;;;0.95;;
9559;SDS011;4818;50.860;4.648;2023-12-20T00:51:32;5.00;;;1.50;;
9559;SDS011;4818;50.860;4.648;2023-12-20T00:53:58;6.55;;;0.82;;
9559;SDS011;4818;50.860;4.648;2023-12-20T00:56:24;9.38;;;0.73;;
9559;SDS011;4818;50.860;4.648;2023-12-20T00:58:50;7.90;;;1.15;;
9559;SDS011;4818;50.860;4.648;2023-12-20T01:01:17;13.70;;;1.10;;
9559;SDS011;4818;50.860;4.648;2023-12-20T01:03:43;24.65;;;1.40;;
9559;SDS011;4818;50.860;4.648;2023-12-20T01:06:09;13.38;;;1.40;;
9559;SDS011;4818;50.860;4.648;2023-12-20T01:08:35;8.40;;;0.75;;
9559;SDS011;4818;50.860;4.648;2023-12-20T01:11:06;12.60;;;1.08;;
9559;SDS011;4818;50.860;4.648;2023-12-20T01:13:32;10.27;;;1.77;;
9559;SDS011;4818;50.860;4.648;2023-12-20T01:15:58;15.52;;;0.90;;
9559;SDS011;4818;50.860;4.648;2023-12-20T01:18:24;18.00;;;2.33;;
9559;SDS011;4818;50.860;4.648;2023-12-20T01:20:51;15.02;;;1.77;;
9559;SDS011;4818;50.860;4.648;2023-12-20T01:23:17;4.95;;;0.70;;
9559;SDS011;4818;50.860;4.648;2023-12-20T01:25:43;10.52;;;1.23;;
9559;SDS011;4818;50.860;4.648;2023-12-20T01:28:09;5.43;;;0.50;;
9559;SDS011;4818;50.860;4.648;2023-12-20T01:30:35;10.95;;;0.80;;
9559;SDS011;4818;50.860;4.648;2023-12-20T01:33:01;12.73;;;1.48;;
9559;SDS011;4818;50.860;4.648;2023-12-20T01:35:28;7.47;;;1.05;;
9559;SDS011;4818;50.860;4.648;2023-12-20T01:37:54;19.90;;;1.23;;
9559;SDS011;4818;50.860;4.648;2023-12-20T01:40:23;4.25;;;0.68;;
9559;SDS011;4818;50.860;4.648;2023-12-20T01:43:04;14.13;;;1.00;;
9559;SDS011;4818;50.860;4.648;2023-12-20T01:45:33;14.05;;;0.93;;
9559;SDS011;4818;50.860;4.648;2023-12-20T01:47:59;12.98;;;1.00;;
9559;SDS011;4818;50.860;4.648;2023-12-20T01:50:28;7.43;;;1.08;;
9559;SDS011;4818;50.860;4.648;2023-12-20T01:52:55;10.52;;;1.25;;
9559;SDS011;4818;50.860;4.648;2023-12-20T01:55:25;9.68;;;1.52;;
9559;SDS011;4818;50.860;4.648;2023-12-20T01:57:52;14.10;;;1.27;;
9559;SDS011;4818;50.860;4.648;2023-12-20T02:00:19;17.17;;;2.20;;
9559;SDS011;4818;50.860;4.648;2023-12-20T02:02:48;6.80;;;1.30;;
9559;SDS011;4818;50.860;4.648;2023-12-20T02:05:16;11.90;;;1.60;;
9559;SDS011;4818;50.860;4.648;2023-12-20T02:07:42;13.25;;;1.60;;
9559;SDS011;4818;50.860;4.648;2023-12-20T02:10:09;20.55;;;2.95;;
9559;SDS011;4818;50.860;4.648;2023-12-20T02:12:35;16.80;;;1.60;;
9559;SDS011;4818;50.860;4.648;2023-12-20T02:15:01;14.68;;;1.58;;
9559;SDS011;4818;50.860;4.648;2023-12-20T02:17:27;24.95;;;3.50;;
9559;SDS011;4818;50.860;4.648;2023-12-20T02:19:54;12.25;;;1.92;;
9559;SDS011;4818;50.860;4.648;2023-12-20T02:22:20;11.70;;;1.67;;
9559;SDS011;4818;50.860;4.648;2023-12-20T02:24:46;15.32;;;2.17;;
9559;SDS011;4818;50.860;4.648;2023-12-20T02:27:12;16.55;;;2.38;;
9559;SDS011;4818;50.860;4.648;2023-12-20T02:29:38;13.60;;;1.90;;
9559;SDS011;4818;50.860;4.648;2023-12-20T02:32:05;15.70;;;1.85;;
9559;SDS011;4818;50.860;4.648;2023-12-20T02:34:31;6.75;;;1.42;;
9559;SDS011;4818;50.860;4.648;2023-12-20T02:36:57;12.77;;;2.08;;
9559;SDS011;4818;50.860;4.648;2023-12-20T02:39:23;10.68;;;1.65;;
9559;SDS011;4818;50.860;4.648;2023-12-20T02:41:50;17.83;;;2.08;;
9559;SDS011;4818;50.860;4.648;2023-12-20T02:44:16;16.15;;;2.63;;
9559;SDS011;4818;50.860;4.648;2023-12-20T02:46:42;23.20;;;2.60;;
9559;SDS011;4818;50.860;4.648;2023-12-20T02:49:08;11.32;;;1.58;;
9559;SDS011;4818;50.860;4.648;2023-12-20T02:51:34;14.65;;;2.17;;
9559;SDS011;4818;50.860;4.648;2023-12-20T02:54:03;11.70;;;1.88;;
9559;SDS011;4818;50.860;4.648;2023-12-20T02:56:31;10.65;;;1.63;;
9559;SDS011;4818;50.860;4.648;2023-12-20T02:58:57;13.85;;;1.98;;
9559;SDS011;4818;50.860;4.648;2023-12-20T03:01:23;13.07;;;2.47;;
9559;SDS011;4818;50.860;4.648;2023-12-20T03:03:49;16.65;;;2.10;;
9559;SDS011;4818;50.860;4.648;2023-12-20T03:06:19;12.98;;;1.77;;
9559;SDS011;4818;50.860;4.648;2023-12-20T03:11:11;17.75;;;1.67;;
9559;SDS011;4818;50.860;4.648;2023-12-20T03:13:38;18.83;;;2.22;;
9559;SDS011;4818;50.860;4.648;2023-12-20T03:16:11;13.80;;;2.45;;
9559;SDS011;4818;50.860;4.648;2023-12-20T03:18:37;16.30;;;2.63;;
9559;SDS011;4818;50.860;4.648;2023-12-20T03:21:04;17.88;;;2.83;;
9559;SDS011;4818;50.860;4.648;2023-12-20T03:23:30;9.15;;;1.45;;
9559;SDS011;4818;50.860;4.648;2023-12-20T03:25:57;11.10;;;1.67;;
9559;SDS011;4818;50.860;4.648;2023-12-20T03:28:24;9.07;;;1.98;;
9559;SDS011;4818;50.860;4.648;2023-12-20T03:30:50;9.48;;;1.52;;
9559;SDS011;4818;50.860;4.648;2023-12-20T03:33:17;13.15;;;1.52;;
9559;SDS011;4818;50.860;4.648;2023-12-20T03:35:43;16.63;;;2.30;;
9559;SDS011;4818;50.860;4.648;2023-12-20T03:38:09;16.98;;;2.35;;
9559;SDS011;4818;50.860;4.648;2023-12-20T03:40:36;12.95;;;2.85;;
9559;SDS011;4818;50.860;4.648;2023-12-20T03:43:02;13.93;;;2.25;;
9559;SDS011;4818;50.860;4.648;2023-12-20T03:45:28;13.80;;;2.55;;
9559;SDS011;4818;50.860;4.648;2023-12-20T03:47:54;14.45;;;2.85;;
9559;SDS011;4818;50.860;4.648;2023-12-20T03:50:27;19.15;;;2.50;;
9559;SDS011;4818;50.860;4.648;2023-12-20T03:52:53;17.73;;;2.80;;
9559;SDS011;4818;50.860;4.648;2023-12-20T03:55:20;15.32;;;2.83;;
9559;SDS011;4818;50.860;4.648;2023-12-20T03:57:46;17.73;;;3.03;;
9559;SDS011;4818;50.860;4.648;2023-12-20T04:00:12;15.27;;;3.00;;
9559;SDS011;4818;50.860;4.648;2023-12-20T04:02:39;21.25;;;3.35;;
9559;SDS011;4818;50.860;4.648;2023-12-20T04:05:05;13.07;;;2.45;;
9559;SDS011;4818;50.860;4.648;2023-12-20T04:07:31;14.63;;;3.13;;
9559;SDS011;4818;50.860;4.648;2023-12-20T04:09:58;18.00;;;3.22;;
9559;SDS011;4818;50.860;4.648;2023-12-20T04:12:24;22.52;;;3.10;;
9559;SDS011;4818;50.860;4.648;2023-12-20T04:14:51;22.25;;;5.05;;
9559;SDS011;4818;50.860;4.648;2023-12-20T04:17:17;18.77;;;3.28;;
9559;SDS011;4818;50.860;4.648;2023-12-20T04:19:44;14.88;;;3.05;;
9559;SDS011;4818;50.860;4.648;2023-12-20T04:22:10;11.02;;;2.30;;
9559;SDS011;4818;50.860;4.648;2023-12-20T04:24:36;23.67;;;3.15;;
9559;SDS011;4818;50.860;4.648;2023-12-20T04:27:02;14.50;;;2.17;;
9559;SDS011;4818;50.860;4.648;2023-12-20T04:29:29;21.60;;;3.33;;
9559;SDS011;4818;50.860;4.648;2023-12-20T04:31:55;11.77;;;2.33;;
9559;SDS011;4818;50.860;4.648;2023-12-20T04:34:21;16.17;;;2.05;;
9559;SDS011;4818;50.860;4.648;2023-12-20T04:36:48;12.30;;;2.13;;
9559;SDS011;4818;50.860;4.648;2023-12-20T04:39:14;11.40;;;2.42;;
9559;SDS011;4818;50.860;4.648;2023-12-20T04:41:40;19.52;;;3.33;;
9559;SDS011;4818;50.860;4.648;2023-12-20T04:44:06;15.13;;;2.30;;
9559;SDS011;4818;50.860;4.648;2023-12-20T04:46:33;14.60;;;2.33;;
9559;SDS011;4818;50.860;4.648;2023-12-20T04:48:59;12.32;;;2.92;;
9559;SDS011;4818;50.860;4.648;2023-12-20T04:51:25;12.57;;;1.88;;
9559;SDS011;4818;50.860;4.648;2023-12-20T04:53:51;16.90;;;3.55;;
9559;SDS011;4818;50.860;4.648;2023-12-20T04:56:17;17.35;;;2.65;;
9559;SDS011;4818;50.860;4.648;2023-12-20T04:58:44;10.00;;;2.35;;
9559;SDS011;4818;50.860;4.648;2023-12-20T05:01:11;20.85;;;2.78;;
9559;SDS011;4818;50.860;4.648;2023-12-20T05:03:37;12.30;;;2.05;;
9559;SDS011;4818;50.860;4.648;2023-12-20T05:06:03;13.35;;;1.75;;
9559;SDS011;4818;50.860;4.648;2023-12-20T05:08:30;16.58;;;1.95;;
9559;SDS011;4818;50.860;4.648;2023-12-20T05:10:56;9.52;;;2.20;;
9559;SDS011;4818;50.860;4.648;2023-12-20T05:13:22;14.80;;;1.55;;
9559;SDS011;4818;50.860;4.648;2023-12-20T05:15:48;12.70;;;2.28;;
9559;SDS011;4818;50.860;4.648;2023-12-20T05:18:15;11.50;;;2.25;;
9559;SDS011;4818;50.860;4.648;2023-12-20T05:20:41;11.38;;;1.92;;
9559;SDS011;4818;50.860;4.648;2023-12-20T05:23:07;10.35;;;2.00;;
9559;SDS011;4818;50.860;4.648;2023-12-20T05:25:33;14.40;;;2.20;;
9559;SDS011;4818;50.860;4.648;2023-12-20T05:27:59;15.77;;;2.47;;
9559;SDS011;4818;50.860;4.648;2023-12-20T05:30:26;20.20;;;2.10;;
9559;SDS011;4818;50.860;4.648;2023-12-20T05:32:52;14.30;;;1.98;;
9559;SDS011;4818;50.860;4.648;2023-12-20T05:35:18;12.82;;;1.80;;
9559;SDS011;4818;50.860;4.648;2023-12-20T05:37:44;19.17;;;3.85;;
9559;SDS011;4818;50.860;4.648;2023-12-20T05:40:10;10.20;;;2.25;;
9559;SDS011;4818;50.860;4.648;2023-12-20T05:42:37;12.60;;;3.15;;
9559;SDS011;4818;50.860;4.648;2023-12-20T05:45:04;9.85;;;2.00;;
9559;SDS011;4818;50.860;4.648;2023-12-20T05:47:31;17.77;;;2.42;;
9559;SDS011;4818;50.860;4.648;2023-12-20T05:49:57;25.77;;;3.03;;
9559;SDS011;4818;50.860;4.648;2023-12-20T05:52:24;15.98;;;2.42;;
9559;SDS011;4818;50.860;4.648;2023-12-20T05:54:50;16.30;;;1.67;;
9559;SDS011;4818;50.860;4.648;2023-12-20T05:57:17;12.85;;;1.60;;
9559;SDS011;4818;50.860;4.648;2023-12-20T05:59:43;13.93;;;2.35;;
9559;SDS011;4818;50.860;4.648;2023-12-20T06:02:09;15.68;;;2.28;;
9559;SDS011;4818;50.860;4.648;2023-12-20T06:04:35;15.13;;;2.80;;
9559;SDS011;4818;50.860;4.648;2023-12-20T06:07:01;20.23;;;3.30;;
9559;SDS011;4818;50.860;4.648;2023-12-20T06:09:28;20.65;;;3.20;;
9559;SDS011;4818;50.860;4.648;2023-12-20T06:11:54;19.25;;;4.20;;
9559;SDS011;4818;50.860;4.648;2023-12-20T06:14:21;16.95;;;3.47;;
9559;SDS011;4818;50.860;4.648;2023-12-20T06:16:47;16.95;;;3.90;;
9559;SDS011;4818;50.860;4.648;2023-12-20T06:19:13;12.65;;;2.17;;
9559;SDS011;4818;50.860;4.648;2023-12-20T06:21:39;13.00;;;1.83;;
9559;SDS011;4818;50.860;4.648;2023-12-20T06:24:05;16.17;;;2.08;;
9559;SDS011;4818;50.860;4.648;2023-12-20T06:26:32;16.50;;;2.60;;
9559;SDS011;4818;50.860;4.648;2023-12-20T06:28:58;23.48;;;2.75;;
9559;SDS011;4818;50.860;4.648;2023-12-20T06:31:24;14.85;;;1.95;;
9559;SDS011;4818;50.860;4.648;2023-12-20T06:33:50;18.50;;;2.38;;
9559;SDS011;4818;50.860;4.648;2023-12-20T06:36:22;12.10;;;2.90;;
9559;SDS011;4818;50.860;4.648;2023-12-20T06:38:49;10.23;;;2.05;;
9559;SDS011;4818;50.860;4.648;2023-12-20T06:41:18;24.67;;;2.83;;
9559;SDS011;4818;50.860;4.648;2023-12-20T06:43:44;12.63;;;2.20;;
9559;SDS011;4818;50.860;4.648;2023-12-20T06:46:11;16.55;;;2.15;;
9559;SDS011;4818;50.860;4.648;2023-12-20T06:48:38;10.48;;;1.70;;
9559;SDS011;4818;50.860;4.648;2023-12-20T06:51:05;13.27;;;2.03;;
9559;SDS011;4818;50.860;4.648;2023-12-20T06:53:32;12.73;;;1.38;;
9559;SDS011;4818;50.860;4.648;2023-12-20T06:55:58;18.10;;;1.67;;
9559;SDS011;4818;50.860;4.648;2023-12-20T06:58:24;14.02;;;1.33;;
9559;SDS011;4818;50.860;4.648;2023-12-20T07:00:50;8.60;;;1.90;;
9559;SDS011;4818;50.860;4.648;2023-12-20T07:03:16;12.15;;;1.60;;
9559;SDS011;4818;50.860;4.648;2023-12-20T07:05:43;12.75;;;1.52;;
9559;SDS011;4818;50.860;4.648;2023-12-20T07:08:09;19.65;;;3.38;;
9559;SDS011;4818;50.860;4.648;2023-12-20T07:10:36;16.23;;;1.40;;
9559;SDS011;4818;50.860;4.648;2023-12-20T07:13:02;18.48;;;1.40;;
9559;SDS011;4818;50.860;4.648;2023-12-20T07:15:29;10.43;;;1.38;;
9559;SDS011;4818;50.860;4.648;2023-12-20T07:17:55;17.60;;;2.70;;
9559;SDS011;4818;50.860;4.648;2023-12-20T07:20:21;13.82;;;2.10;;
9559;SDS011;4818;50.860;4.648;2023-12-20T07:22:48;9.60;;;1.02;;
9559;SDS011;4818;50.860;4.648;2023-12-20T07:25:14;15.07;;;2.25;;
9559;SDS011;4818;50.860;4.648;2023-12-20T07:27:40;13.57;;;1.30;;
9559;SDS011;4818;50.860;4.648;2023-12-20T07:30:06;12.05;;;0.90;;
9559;SDS011;4818;50.860;4.648;2023-12-20T07:32:33;12.85;;;1.73;;
9559;SDS011;4818;50.860;4.648;2023-12-20T07:34:59;18.42;;;1.73;;
9559;SDS011;4818;50.860;4.648;2023-12-20T07:37:25;12.98;;;1.20;;
9559;SDS011;4818;50.860;4.648;2023-12-20T07:39:52;10.85;;;1.30;;
9559;SDS011;4818;50.860;4.648;2023-12-20T07:42:19;16.38;;;1.15;;
9559;SDS011;4818;50.860;4.648;2023-12-20T07:44:47;11.07;;;1.23;;
9559;SDS011;4818;50.860;4.648;2023-12-20T07:47:13;11.48;;;0.80;;
9559;SDS011;4818;50.860;4.648;2023-12-20T07:49:42;16.07;;;2.20;;
9559;SDS011;4818;50.860;4.648;2023-12-20T07:52:08;11.07;;;1.00;;
9559;SDS011;4818;50.860;4.648;2023-12-20T07:54:34;10.55;;;1.08;;
9559;SDS011;4818;50.860;4.648;2023-12-20T07:57:01;17.75;;;1.35;;
9559;SDS011;4818;50.860;4.648;2023-12-20T07:59:27;20.77;;;1.33;;
9559;SDS011;4818;50.860;4.648;2023-12-20T08:01:57;6.25;;;1.30;;
9559;SDS011;4818;50.860;4.648;2023-12-20T08:04:23;16.40;;;1.20;;
9559;SDS011;4818;50.860;4.648;2023-12-20T08:06:50;10.90;;;0.90;;
9559;SDS011;4818;50.860;4.648;2023-12-20T08:09:16;8.88;;;1.00;;
9559;SDS011;4818;50.860;4.648;2023-12-20T08:11:46;11.40;;;1.08;;
9559;SDS011;4818;50.860;4.648;2023-12-20T08:16:38;19.90;;;2.45;;
9559;SDS011;4818;50.860;4.648;2023-12-20T08:19:05;13.60;;;0.95;;
9559;SDS011;4818;50.860;4.648;2023-12-20T08:21:31;10.70;;;1.15;;
9559;SDS011;4818;50.860;4.648;2023-12-20T08:23:57;7.65;;;0.90;;
9559;SDS011;4818;50.860;4.648;2023-12-20T08:26:25;9.27;;;0.85;;
9559;SDS011;4818;50.860;4.648;2023-12-20T08:28:52;18.13;;;1.20;;
9559;SDS011;4818;50.860;4.648;2023-12-20T08:31:21;9.57;;;1.17;;
9559;SDS011;4818;50.860;4.648;2023-12-20T08:33:47;7.38;;;1.02;;
9559;SDS011;4818;50.860;4.648;2023-12-20T08:36:14;11.75;;;0.65;;
9559;SDS011;4818;50.860;4.648;2023-12-20T08:38:42;15.50;;;1.38;;
9559;SDS011;4818;50.860;4.648;2023-12-20T08:41:09;11.13;;;0.82;;
9559;SDS011;4818;50.860;4.648;2023-12-20T08:43:35;14.32;;;1.10;;
9559;SDS011;4818;50.860;4.648;2023-12-20T08:46:01;10.43;;;0.93;;
9559;SDS011;4818;50.860;4.648;2023-12-20T08:48:28;7.43;;;0.85;;
9559;SDS011;4818;50.860;4.648;2023-12-20T08:50:55;10.93;;;0.80;;
9559;SDS011;4818;50.860;4.648;2023-12-20T08:53:24;8.00;;;1.27;;
9559;SDS011;4818;50.860;4.648;2023-12-20T08:55:50;12.77;;;1.33;;
9559;SDS011;4818;50.860;4.648;2023-12-20T08:58:17;9.27;;;1.20;;
9559;SDS011;4818;50.860;4.648;2023-12-20T09:00:43;11.23;;;0.70;;
9559;SDS011;4818;50.860;4.648;2023-12-20T09:03:09;13.65;;;1.73;;
9559;SDS011;4818;50.860;4.648;2023-12-20T09:05:36;11.23;;;1.13;;
9559;SDS011;4818;50.860;4.648;2023-12-20T09:08:02;15.60;;;2.15;;
9559;SDS011;4818;50.860;4.648;2023-12-20T09:10:28;14.27;;;1.25;;
9559;SDS011;4818;50.860;4.648;2023-12-20T09:12:54;10.38;;;0.63;;
9559;SDS011;4818;50.860;4.648;2023-12-20T09:15:25;15.35;;;1.35;;
9559;SDS011;4818;50.860;4.648;2023-12-20T09:17:52;7.75;;;0.70;;
9559;SDS011;4818;50.860;4.648;2023-12-20T09:20:22;12.90;;;1.70;;
9559;SDS011;4818;50.860;4.648;2023-12-20T09:22:49;10.50;;;1.45;;
9559;SDS011;4818;50.860;4.648;2023-12-20T09:25:15;9.38;;;0.60;;
9559;SDS011;4818;50.860;4.648;2023-12-20T09:27:42;9.10;;;0.60;;
9559;SDS011;4818;50.860;4.648;2023-12-20T09:30:09;14.07;;;0.98;;
9559;SDS011;4818;50.860;4.648;2023-12-20T09:32:35;11.07;;;0.88;;
9559;SDS011;4818;50.860;4.648;2023-12-20T09:35:02;8.30;;;0.98;;
9559;SDS011;4818;50.860;4.648;2023-12-20T09:37:30;4.65;;;0.75;;
9559;SDS011;4818;50.860;4.648;2023-12-20T09:39:56;11.18;;;0.80;;
9559;SDS011;4818;50.860;4.648;2023-12-20T09:42:37;5.93;;;0.50;;
9559;SDS011;4818;50.860;4.648;2023-12-20T09:45:04;5.70;;;0.73;;
9559;SDS011;4818;50.860;4.648;2023-12-20T09:47:33;11.18;;;1.70;;
9559;SDS011;4818;50.860;4.648;2023-12-20T09:49:59;6.43;;;0.73;;
9559;SDS011;4818;50.860;4.648;2023-12-20T09:52:25;10.65;;;0.80;;
9559;SDS011;4818;50.860;4.648;2023-12-20T09:54:52;9.25;;;0.70;;
9559;SDS011;4818;50.860;4.648;2023-12-20T09:57:20;9.18;;;1.33;;
9559;SDS011;4818;50.860;4.648;2023-12-20T09:59:46;6.10;;;0.85;;
9559;SDS011;4818;50.860;4.648;2023-12-20T10:02:13;6.63;;;0.82;;
9559;SDS011;4818;50.860;4.648;2023-12-20T10:04:42;9.95;;;1.42;;
9559;SDS011;4818;50.860;4.648;2023-12-20T10:07:12;12.98;;;1.63;;
9559;SDS011;4818;50.860;4.648;2023-12-20T10:09:38;12.18;;;1.10;;
9559;SDS011;4818;50.860;4.648;2023-12-20T10:12:05;9.10;;;1.60;;
9559;SDS011;4818;50.860;4.648;2023-12-20T10:14:32;8.13;;;1.27;;
9559;SDS011;4818;50.860;4.648;2023-12-20T10:17:02;11.50;;;1.40;;
9559;SDS011;4818;50.860;4.648;2023-12-20T10:19:28;7.25;;;1.05;;
9559;SDS011;4818;50.860;4.648;2023-12-20T10:21:54;6.70;;;0.90;;
9559;SDS011;4818;50.860;4.648;2023-12-20T10:24:20;8.07;;;0.90;;
9559;SDS011;4818;50.860;4.648;2023-12-20T10:26:47;12.82;;;1.05;;
9559;SDS011;4818;50.860;4.648;2023-12-20T10:29:13;5.72;;;1.30;;
9559;SDS011;4818;50.860;4.648;2023-12-20T10:31:39;8.38;;;0.85;;
9559;SDS011;4818;50.860;4.648;2023-12-20T10:34:07;10.80;;;1.02;;
9559;SDS011;4818;50.860;4.648;2023-12-20T10:36:33;11.57;;;1.60;;
9559;SDS011;4818;50.860;4.648;2023-12-20T10:39:01;9.27;;;0.82;;
9559;SDS011;4818;50.860;4.648;2023-12-20T10:41:31;12.93;;;0.93;;
9559;SDS011;4818;50.860;4.648;2023-12-20T10:43:58;11.63;;;1.85;;
9559;SDS011;4818;50.860;4.648;2023-12-20T10:46:28;9.65;;;1.20;;
9559;SDS011;4818;50.860;4.648;2023-12-20T10:51:21;4.38;;;0.70;;
9559;SDS011;4818;50.860;4.648;2023-12-20T10:53:48;11.07;;;1.10;;
9559;SDS011;4818;50.860;4.648;2023-12-20T10:56:18;7.68;;;1.15;;
9559;SDS011;4818;50.860;4.648;2023-12-20T11:01:11;12.65;;;1.45;;
9559;SDS011;4818;50.860;4.648;2023-12-20T11:03:38;10.02;;;0.75;;
9559;SDS011;4818;50.860;4.648;2023-12-20T11:08:35;12.63;;;0.85;;
9559;SDS011;4818;50.860;4.648;2023-12-20T11:13:44;9.27;;;1.30;;
9559;SDS011;4818;50.860;4.648;2023-12-20T11:18:36;18.75;;;2.40;;
9559;SDS011;4818;50.860;4.648;2023-12-20T11:21:04;13.95;;;1.13;;
9559;SDS011;4818;50.860;4.648;2023-12-20T11:23:31;16.73;;;1.15;;
9559;SDS011;4818;50.860;4.648;2023-12-20T11:26:01;16.50;;;1.20;;
9559;SDS011;4818;50.860;4.648;2023-12-20T11:28:28;8.20;;;1.17;;
9559;SDS011;4818;50.860;4.648;2023-12-20T11:31:00;13.55;;;0.95;;
9559;SDS011;4818;50.860;4.648;2023-12-20T11:33:30;30.75;;;1.73;;
9559;SDS011;4818;50.860;4.648;2023-12-20T11:36:01;17.83;;;1.92;;
9559;SDS011;4818;50.860;4.648;2023-12-20T11:38:35;10.88;;;1.25;;
9559;SDS011;4818;50.860;4.648;2023-12-20T11:41:02;17.30;;;1.35;;
9559;SDS011;4818;50.860;4.648;2023-12-20T11:43:38;17.13;;;1.45;;
9559;SDS011;4818;50.860;4.648;2023-12-20T11:46:05;10.18;;;1.80;;
9559;SDS011;4818;50.860;4.648;2023-12-20T11:48:32;10.82;;;0.90;;
9559;SDS011;4818;50.860;4.648;2023-12-20T11:50:58;10.85;;;0.93;;
9559;SDS011;4818;50.860;4.648;2023-12-20T11:53:25;21.35;;;1.27;;
9559;SDS011;4818;50.860;4.648;2023-12-20T11:55:51;11.75;;;1.30;;
9559;SDS011;4818;50.860;4.648;2023-12-20T11:58:17;16.15;;;1.88;;
9559;SDS011;4818;50.860;4.648;2023-12-20T12:00:44;11.65;;;0.90;;
9559;SDS011;4818;50.860;4.648;2023-12-20T12:03:10;15.00;;;1.05;;
9559;SDS011;4818;50.860;4.648;2023-12-20T12:05:36;12.07;;;1.02;;
9559;SDS011;4818;50.860;4.648;2023-12-20T12:08:02;15.38;;;1.52;;
9559;SDS011;4818;50.860;4.648;2023-12-20T12:10:29;16.13;;;1.98;;
9559;SDS011;4818;50.860;4.648;2023-12-20T12:12:55;13.88;;;1.95;;
9559;SDS011;4818;50.860;4.648;2023-12-20T12:15:22;10.35;;;1.42;;
9559;SDS011;4818;50.860;4.648;2023-12-20T12:17:55;15.38;;;1.38;;
9559;SDS011;4818;50.860;4.648;2023-12-20T12:20:21;9.57;;;1.15;;
9559;SDS011;4818;50.860;4.648;2023-12-20T12:23:01;7.35;;;1.20;;
9559;SDS011;4818;50.860;4.648;2023-12-20T12:25:28;12.07;;;1.67;;
9559;SDS011;4818;50.860;4.648;2023-12-20T12:27:55;9.52;;;1.23;;
9559;SDS011;4818;50.860;4.648;2023-12-20T12:30:25;12.43;;;0.80;;
9559;SDS011;4818;50.860;4.648;2023-12-20T12:32:52;12.20;;;1.33;;
9559;SDS011;4818;50.860;4.648;2023-12-20T12:35:19;11.15;;;0.90;;
9559;SDS011;4818;50.860;4.648;2023-12-20T12:37:48;12.05;;;1.35;;
9559;SDS011;4818;50.860;4.648;2023-12-20T12:40:16;11.18;;;1.95;;
9559;SDS011;4818;50.860;4.648;2023-12-20T12:42:43;12.00;;;1.00;;
9559;SDS011;4818;50.860;4.648;2023-12-20T12:45:10;15.13;;;1.00;;
9559;SDS011;4818;50.860;4.648;2023-12-20T12:47:39;8.18;;;1.00;;
9559;SDS011;4818;50.860;4.648;2023-12-20T12:50:06;11.85;;;1.52;;
9559;SDS011;4818;50.860;4.648;2023-12-20T12:52:32;14.48;;;1.55;;
9559;SDS011;4818;50.860;4.648;2023-12-20T12:55:00;11.57;;;0.98;;
9559;SDS011;4818;50.860;4.648;2023-12-20T12:57:26;14.02;;;1.23;;
9559;SDS011;4818;50.860;4.648;2023-12-20T12:59:52;16.95;;;1.38;;
9559;SDS011;4818;50.860;4.648;2023-12-20T13:02:19;12.95;;;1.52;;
9559;SDS011;4818;50.860;4.648;2023-12-20T13:04:45;8.88;;;1.30;;
9559;SDS011;4818;50.860;4.648;2023-12-20T13:07:11;12.38;;;1.08;;
9559;SDS011;4818;50.860;4.648;2023-12-20T13:09:38;9.80;;;1.00;;
9559;SDS011;4818;50.860;4.648;2023-12-20T13:12:05;14.07;;;1.60;;
9559;SDS011;4818;50.860;4.648;2023-12-20T13:14:33;10.63;;;1.08;;
9559;SDS011;4818;50.860;4.648;2023-12-20T13:17:00;21.25;;;1.70;;
9559;SDS011;4818;50.860;4.648;2023-12-20T13:19:26;12.15;;;1.13;;
9559;SDS011;4818;50.860;4.648;2023-12-20T13:21:52;12.85;;;1.58;;
9559;SDS011;4818;50.860;4.648;2023-12-20T13:24:22;10.82;;;1.05;;
9559;SDS011;4818;50.860;4.648;2023-12-20T13:26:48;12.53;;;1.93;;
9559;SDS011;4818;50.860;4.648;2023-12-20T13:29:15;20.27;;;1.60;;
9559;SDS011;4818;50.860;4.648;2023-12-20T13:31:42;12.20;;;1.23;;
9559;SDS011;4818;50.860;4.648;2023-12-20T13:34:08;14.20;;;0.85;;
9559;SDS011;4818;50.860;4.648;2023-12-20T13:36:35;12.85;;;0.90;;
9559;SDS011;4818;50.860;4.648;2023-12-20T13:39:02;14.65;;;1.77;;
9559;SDS011;4818;50.860;4.648;2023-12-20T13:41:30;11.40;;;0.82;;
9559;SDS011;4818;50.860;4.648;2023-12-20T13:43:57;13.45;;;1.15;;
9559;SDS011;4818;50.860;4.648;2023-12-20T13:46:23;10.80;;;1.00;;
9559;SDS011;4818;50.860;4.648;2023-12-20T13:48:49;7.82;;;0.90;;
9559;SDS011;4818;50.860;4.648;2023-12-20T13:51:16;18.27;;;1.48;;
9559;SDS011;4818;50.860;4.648;2023-12-20T13:53:43;12.93;;;2.15;;
9559;SDS011;4818;50.860;4.648;2023-12-20T13:56:09;11.05;;;0.80;;
9559;SDS011;4818;50.860;4.648;2023-12-20T13:58:35;12.02;;;1.02;;
9559;SDS011;4818;50.860;4.648;2023-12-20T14:01:02;7.78;;;1.10;;
9559;SDS011;4818;50.860;4.648;2023-12-20T14:03:28;12.35;;;1.30;;
9559;SDS011;4818;50.860;4.648;2023-12-20T14:05:56;14.15;;;1.10;;
9559;SDS011;4818;50.860;4.648;2023-12-20T14:08:22;15.05;;;1.73;;
9559;SDS011;4818;50.860;4.648;2023-12-20T14:10:49;16.20;;;1.08;;
9559;SDS011;4818;50.860;4.648;2023-12-20T14:13:15;14.75;;;1.67;;
9559;SDS011;4818;50.860;4.648;2023-12-20T14:15:41;6.72;;;0.90;;
9559;SDS011;4818;50.860;4.648;2023-12-20T14:18:07;7.05;;;1.08;;
9559;SDS011;4818;50.860;4.648;2023-12-20T14:20:34;10.57;;;1.10;;
9559;SDS011;4818;50.860;4.648;2023-12-20T14:23:01;9.48;;;1.42;;
9559;SDS011;4818;50.860;4.648;2023-12-20T14:25:27;9.93;;;0.82;;
9559;SDS011;4818;50.860;4.648;2023-12-20T14:27:54;15.60;;;1.15;;
9559;SDS011;4818;50.860;4.648;2023-12-20T14:30:20;12.50;;;0.95;;
9559;SDS011;4818;50.860;4.648;2023-12-20T14:32:46;12.60;;;1.05;;
9559;SDS011;4818;50.860;4.648;2023-12-20T14:35:13;15.15;;;1.40;;
9559;SDS011;4818;50.860;4.648;2023-12-20T14:37:40;5.35;;;0.60;;
9559;SDS011;4818;50.860;4.648;2023-12-20T14:40:07;10.18;;;0.93;;
9559;SDS011;4818;50.860;4.648;2023-12-20T14:42:49;7.22;;;1.73;;
9559;SDS011;4818;50.860;4.648;2023-12-20T14:45:16;7.35;;;0.93;;
9559;SDS011;4818;50.860;4.648;2023-12-20T14:47:43;13.07;;;1.52;;
9559;SDS011;4818;50.860;4.648;2023-12-20T14:50:09;11.13;;;1.30;;
9559;SDS011;4818;50.860;4.648;2023-12-20T14:52:42;14.60;;;1.48;;
9559;SDS011;4818;50.860;4.648;2023-12-20T14:55:08;15.20;;;0.98;;
9559;SDS011;4818;50.860;4.648;2023-12-20T14:57:34;16.30;;;0.93;;
9559;SDS011;4818;50.860;4.648;2023-12-20T15:00:00;13.70;;;1.25;;
9559;SDS011;4818;50.860;4.648;2023-12-20T15:02:26;15.77;;;1.65;;
9559;SDS011;4818;50.860;4.648;2023-12-20T15:04:54;7.40;;;0.88;;
9559;SDS011;4818;50.860;4.648;2023-12-20T15:07:20;8.77;;;1.23;;
9559;SDS011;4818;50.860;4.648;2023-12-20T15:09:46;8.82;;;0.93;;
9559;SDS011;4818;50.860;4.648;2023-12-20T15:12:12;9.95;;;1.02;;
9559;SDS011;4818;50.860;4.648;2023-12-20T15:14:39;15.75;;;2.13;;
9559;SDS011;4818;50.860;4.648;2023-12-20T15:17:05;8.50;;;0.90;;
9559;SDS011;4818;50.860;4.648;2023-12-20T15:19:31;13.98;;;1.25;;